sensor_id;sensor_type;location;lat;lon;timestamp;pressure;altitude;pressure_sealevel;temperature;humidity
61039;BME280;46919;45.816;3.104;2023-04-08T00:00:44;98100.50;;;5.69;76.59
61039;BME280;46919;45.816;3.104;2023-04-08T00:03:09;98103.91;;;5.62;76.71
61039;BME280;46919;45.816;3.104;2023-04-08T00:05:35;98099.41;;;5.63;76.90
61039;BME280;46919;45.816;3.104;2023-04-08T00:08:00;98096.91;;;5.61;77.34
61039;BME280;46919;45.816;3.104;2023-04-08T00:10:25;98094.59;;;5.58;77.22
61039;BME280;46919;45.816;3.104;2023-04-08T00:12:51;98080.81;;;5.61;77.64
61039;BME280;46919;45.816;3.104;2023-04-08T00:15:16;98083.31;;;5.63;77.76
61039;BME280;46919;45.816;3.104;2023-04-08T00:17:42;98079.41;;;5.66;77.44
61039;BME280;46919;45.816;3.104;2023-04-08T00:20:08;98080.63;;;5.63;77.56
61039;BME280;46919;45.816;3.104;2023-04-08T00:22:34;98081.28;;;5.65;77.62
61039;BME280;46919;45.816;3.104;2023-04-08T00:24:59;98080.16;;;5.59;78.42
61039;BME280;46919;45.816;3.104;2023-04-08T00:27:25;98075.53;;;5.53;78.49
61039;BME280;46919;45.816;3.104;2023-04-08T00:29:51;98082.94;;;5.51;78.35
61039;BME280;46919;45.816;3.104;2023-04-08T00:32:16;98075.72;;;5.52;78.62
61039;BME280;46919;45.816;3.104;2023-04-08T00:34:42;98076.97;;;5.49;79.02
61039;BME280;46919;45.816;3.104;2023-04-08T00:37:08;98068.66;;;5.44;79.03
61039;BME280;46919;45.816;3.104;2023-04-08T00:39:33;98073.34;;;5.42;79.61
61039;BME280;46919;45.816;3.104;2023-04-08T00:41:59;98071.59;;;5.34;79.52
61039;BME280;46919;45.816;3.104;2023-04-08T00:44:26;98069.78;;;5.35;79.74
61039;BME280;46919;45.816;3.104;2023-04-08T00:46:52;98062.75;;;5.34;79.84
61039;BME280;46919;45.816;3.104;2023-04-08T00:49:19;98077.16;;;5.33;80.52
61039;BME280;46919;45.816;3.104;2023-04-08T00:51:45;98068.22;;;5.25;80.99
61039;BME280;46919;45.816;3.104;2023-04-08T00:54:10;98070.63;;;5.20;80.41
61039;BME280;46919;45.816;3.104;2023-04-08T00:56:36;98068.00;;;5.12;81.05
61039;BME280;46919;45.816;3.104;2023-04-08T00:59:02;98065.06;;;5.07;80.93
61039;BME280;46919;45.816;3.104;2023-04-08T01:01:43;98068.13;;;5.04;81.78
61039;BME280;46919;45.816;3.104;2023-04-08T01:06:41;98068.22;;;4.96;81.80
61039;BME280;46919;45.816;3.104;2023-04-08T01:09:12;98073.66;;;4.87;82.51
61039;BME280;46919;45.816;3.104;2023-04-08T01:11:42;98069.41;;;4.78;83.25
61039;BME280;46919;45.816;3.104;2023-04-08T01:14:11;98076.13;;;4.74;83.07
61039;BME280;46919;45.816;3.104;2023-04-08T01:16:40;98073.94;;;4.78;83.40
61039;BME280;46919;45.816;3.104;2023-04-08T01:19:07;98077.34;;;4.71;83.27
61039;BME280;46919;45.816;3.104;2023-04-08T01:21:36;98080.84;;;4.72;83.45
61039;BME280;46919;45.816;3.104;2023-04-08T01:26:30;98081.56;;;4.66;83.56
61039;BME280;46919;45.816;3.104;2023-04-08T01:28:59;98077.63;;;4.62;84.05
61039;BME280;46919;45.816;3.104;2023-04-08T01:31:26;98081.00;;;4.56;84.00
61039;BME280;46919;45.816;3.104;2023-04-08T01:33:52;98079.22;;;4.48;84.21
61039;BME280;46919;45.816;3.104;2023-04-08T01:36:19;98085.50;;;4.40;84.11
61039;BME280;46919;45.816;3.104;2023-04-08T01:38:46;98086.28;;;4.26;85.41
61039;BME280;46919;45.816;3.104;2023-04-08T01:41:12;98084.22;;;4.13;85.60
61039;BME280;46919;45.816;3.104;2023-04-08T01:43:38;98095.78;;;4.05;86.26
61039;BME280;46919;45.816;3.104;2023-04-08T01:46:06;98091.69;;;3.94;86.58
61039;BME280;46919;45.816;3.104;2023-04-08T01:48:33;98084.72;;;3.85;87.18
61039;BME280;46919;45.816;3.104;2023-04-08T01:51:00;98083.59;;;3.79;86.85
61039;BME280;46919;45.816;3.104;2023-04-08T01:53:26;98084.66;;;3.70;87.23
61039;BME280;46919;45.816;3.104;2023-04-08T01:55:55;98088.31;;;3.69;87.11
61039;BME280;46919;45.816;3.104;2023-04-08T01:58:23;98081.97;;;3.70;87.18
61039;BME280;46919;45.816;3.104;2023-04-08T02:00:50;98088.84;;;3.65;87.14
61039;BME280;46919;45.816;3.104;2023-04-08T02:03:18;98083.72;;;3.55;87.91
61039;BME280;46919;45.816;3.104;2023-04-08T02:05:47;98088.94;;;3.48;88.38
61039;BME280;46919;45.816;3.104;2023-04-08T02:08:12;98087.50;;;3.37;87.90
61039;BME280;46919;45.816;3.104;2023-04-08T02:10:38;98095.19;;;3.32;87.95
61039;BME280;46919;45.816;3.104;2023-04-08T02:13:03;98093.38;;;3.24;88.41
61039;BME280;46919;45.816;3.104;2023-04-08T02:15:33;98094.25;;;3.17;88.86
61039;BME280;46919;45.816;3.104;2023-04-08T02:18:04;98094.41;;;3.15;88.84
61039;BME280;46919;45.816;3.104;2023-04-08T02:20:43;98086.25;;;3.17;88.31
61039;BME280;46919;45.816;3.104;2023-04-08T02:25:44;98099.94;;;3.14;88.26
61039;BME280;46919;45.816;3.104;2023-04-08T02:28:11;98096.66;;;3.03;89.18
61039;BME280;46919;45.816;3.104;2023-04-08T02:30:41;98098.16;;;2.98;89.04
61039;BME280;46919;45.816;3.104;2023-04-08T02:33:07;98093.50;;;2.92;89.61
61039;BME280;46919;45.816;3.104;2023-04-08T02:35:34;98102.53;;;2.90;90.13
61039;BME280;46919;45.816;3.104;2023-04-08T02:38:00;98096.66;;;2.87;89.65
61039;BME280;46919;45.816;3.104;2023-04-08T02:40:31;98096.53;;;2.80;89.83
61039;BME280;46919;45.816;3.104;2023-04-08T02:42:57;98091.88;;;2.74;89.58
61039;BME280;46919;45.816;3.104;2023-04-08T02:45:29;98088.72;;;2.62;89.80
61039;BME280;46919;45.816;3.104;2023-04-08T02:47:55;98091.06;;;2.57;90.86
61039;BME280;46919;45.816;3.104;2023-04-08T02:50:20;98091.75;;;2.51;90.32
61039;BME280;46919;45.816;3.104;2023-04-08T02:52:46;98089.91;;;2.43;90.52
61039;BME280;46919;45.816;3.104;2023-04-08T02:55:11;98088.06;;;2.44;90.04
61039;BME280;46919;45.816;3.104;2023-04-08T02:57:39;98086.44;;;2.43;89.78
61039;BME280;46919;45.816;3.104;2023-04-08T03:00:05;98091.25;;;2.39;89.88
61039;BME280;46919;45.816;3.104;2023-04-08T03:02:31;98088.06;;;2.44;89.73
61039;BME280;46919;45.816;3.104;2023-04-08T03:04:57;98091.06;;;2.41;90.75
61039;BME280;46919;45.816;3.104;2023-04-08T03:07:22;98092.59;;;2.35;90.41
61039;BME280;46919;45.816;3.104;2023-04-08T03:09:48;98089.75;;;2.28;89.94
61039;BME280;46919;45.816;3.104;2023-04-08T03:12:13;98094.91;;;2.22;89.92
61039;BME280;46919;45.816;3.104;2023-04-08T03:14:38;98099.59;;;2.20;90.40
61039;BME280;46919;45.816;3.104;2023-04-08T03:17:04;98094.75;;;2.15;91.46
61039;BME280;46919;45.816;3.104;2023-04-08T03:19:30;98106.06;;;2.09;91.58
61039;BME280;46919;45.816;3.104;2023-04-08T03:21:55;98110.09;;;2.05;90.81
61039;BME280;46919;45.816;3.104;2023-04-08T03:24:20;98105.75;;;2.04;91.47
61039;BME280;46919;45.816;3.104;2023-04-08T03:26:46;98103.06;;;2.12;91.27
61039;BME280;46919;45.816;3.104;2023-04-08T03:29:11;98095.56;;;2.07;91.70
61039;BME280;46919;45.816;3.104;2023-04-08T03:31:36;98107.41;;;2.05;91.00
61039;BME280;46919;45.816;3.104;2023-04-08T03:34:02;98107.06;;;1.91;91.50
61039;BME280;46919;45.816;3.104;2023-04-08T03:36:28;98107.53;;;1.87;92.28
61039;BME280;46919;45.816;3.104;2023-04-08T03:38:53;98106.06;;;1.84;92.50
61039;BME280;46919;45.816;3.104;2023-04-08T03:41:18;98117.72;;;1.83;91.66
61039;BME280;46919;45.816;3.104;2023-04-08T03:43:45;98116.88;;;1.83;91.69
61039;BME280;46919;45.816;3.104;2023-04-08T03:46:10;98106.72;;;1.78;92.13
61039;BME280;46919;45.816;3.104;2023-04-08T03:48:36;98106.72;;;1.78;92.55
61039;BME280;46919;45.816;3.104;2023-04-08T03:51:01;98101.88;;;1.81;91.76
61039;BME280;46919;45.816;3.104;2023-04-08T03:53:26;98101.06;;;1.81;91.99
61039;BME280;46919;45.816;3.104;2023-04-08T03:55:54;98102.53;;;1.75;92.10
61039;BME280;46919;45.816;3.104;2023-04-08T03:58:20;98105.69;;;1.71;92.02
61039;BME280;46919;45.816;3.104;2023-04-08T04:00:45;98108.00;;;1.66;92.60
61039;BME280;46919;45.816;3.104;2023-04-08T04:03:10;98112.63;;;1.55;92.99
61039;BME280;46919;45.816;3.104;2023-04-08T04:05:39;98104.78;;;1.54;93.23
61039;BME280;46919;45.816;3.104;2023-04-08T04:08:04;98106.78;;;1.52;92.84
61039;BME280;46919;45.816;3.104;2023-04-08T04:10:30;98107.44;;;1.45;92.97
61039;BME280;46919;45.816;3.104;2023-04-08T04:12:55;98110.78;;;1.48;93.24
61039;BME280;46919;45.816;3.104;2023-04-08T04:15:21;98106.28;;;1.48;93.61
61039;BME280;46919;45.816;3.104;2023-04-08T04:17:47;98104.44;;;1.49;92.96
61039;BME280;46919;45.816;3.104;2023-04-08T04:20:14;98110.97;;;1.46;92.67
61039;BME280;46919;45.816;3.104;2023-04-08T04:22:39;98100.78;;;1.41;93.37
61039;BME280;46919;45.816;3.104;2023-04-08T04:25:05;98099.94;;;1.41;93.92
61039;BME280;46919;45.816;3.104;2023-04-08T04:27:31;98101.59;;;1.42;94.08
61039;BME280;46919;45.816;3.104;2023-04-08T04:29:56;98102.59;;;1.41;93.95
61039;BME280;46919;45.816;3.104;2023-04-08T04:32:22;98109.91;;;1.39;94.35
61039;BME280;46919;45.816;3.104;2023-04-08T04:34:47;98113.22;;;1.33;93.90
61039;BME280;46919;45.816;3.104;2023-04-08T04:37:12;98117.53;;;1.25;93.63
61039;BME280;46919;45.816;3.104;2023-04-08T04:39:38;98109.31;;;1.19;93.97
61039;BME280;46919;45.816;3.104;2023-04-08T04:42:03;98115.13;;;1.14;94.36
61039;BME280;46919;45.816;3.104;2023-04-08T04:44:28;98115.13;;;1.14;94.10
61039;BME280;46919;45.816;3.104;2023-04-08T04:46:54;98121.00;;;1.18;94.60
61039;BME280;46919;45.816;3.104;2023-04-08T04:49:20;98125.13;;;1.20;94.71
61039;BME280;46919;45.816;3.104;2023-04-08T04:51:45;98128.50;;;1.22;95.09
61039;BME280;46919;45.816;3.104;2023-04-08T04:54:11;98126.50;;;1.24;94.59
61039;BME280;46919;45.816;3.104;2023-04-08T04:56:36;98131.78;;;1.16;95.13
61039;BME280;46919;45.816;3.104;2023-04-08T04:59:02;98136.94;;;1.10;94.90
61039;BME280;46919;45.816;3.104;2023-04-08T05:01:29;98134.72;;;1.05;95.16
61039;BME280;46919;45.816;3.104;2023-04-08T05:03:55;98138.53;;;1.02;95.51
61039;BME280;46919;45.816;3.104;2023-04-08T05:06:22;98140.72;;;1.07;95.53
61039;BME280;46919;45.816;3.104;2023-04-08T05:08:47;98138.72;;;1.09;94.79
61039;BME280;46919;45.816;3.104;2023-04-08T05:11:13;98139.44;;;1.11;94.76
61039;BME280;46919;45.816;3.104;2023-04-08T05:13:39;98147.72;;;1.08;94.63
61039;BME280;46919;45.816;3.104;2023-04-08T05:16:04;98143.66;;;0.96;95.44
61039;BME280;46919;45.816;3.104;2023-04-08T05:18:30;98152.31;;;0.98;95.92
61039;BME280;46919;45.816;3.104;2023-04-08T05:20:55;98146.16;;;0.97;95.67
61039;BME280;46919;45.816;3.104;2023-04-08T05:23:21;98145.31;;;0.97;95.38
61039;BME280;46919;45.816;3.104;2023-04-08T05:25:46;98148.66;;;0.99;95.64
61039;BME280;46919;45.816;3.104;2023-04-08T05:28:12;98149.97;;;0.95;95.70
61039;BME280;46919;45.816;3.104;2023-04-08T05:30:37;98147.63;;;0.92;96.27
61039;BME280;46919;45.816;3.104;2023-04-08T05:33:03;98159.28;;;0.90;95.83
61039;BME280;46919;45.816;3.104;2023-04-08T05:35:28;98161.63;;;0.94;96.55
61039;BME280;46919;45.816;3.104;2023-04-08T05:37:53;98163.94;;;0.97;96.96
61039;BME280;46919;45.816;3.104;2023-04-08T05:40:19;98168.38;;;1.14;96.31
61039;BME280;46919;45.816;3.104;2023-04-08T05:42:45;98171.09;;;1.22;95.83
61039;BME280;46919;45.816;3.104;2023-04-08T05:45:10;98165.47;;;1.25;95.75
61039;BME280;46919;45.816;3.104;2023-04-08T05:47:36;98169.09;;;1.24;95.67
61039;BME280;46919;45.816;3.104;2023-04-08T05:50:01;98174.28;;;1.26;95.45
61039;BME280;46919;45.816;3.104;2023-04-08T05:52:27;98177.44;;;1.30;95.61
61039;BME280;46919;45.816;3.104;2023-04-08T05:54:52;98177.63;;;1.36;96.21
61039;BME280;46919;45.816;3.104;2023-04-08T05:57:18;98185.53;;;1.46;95.31
61039;BME280;46919;45.816;3.104;2023-04-08T05:59:43;98195.03;;;1.57;95.10
61039;BME280;46919;45.816;3.104;2023-04-08T06:02:08;98199.91;;;1.70;95.22
61039;BME280;46919;45.816;3.104;2023-04-08T06:04:34;98201.69;;;1.87;94.78
61039;BME280;46919;45.816;3.104;2023-04-08T06:06:59;98199.72;;;2.06;94.33
61039;BME280;46919;45.816;3.104;2023-04-08T06:09:27;98197.44;;;2.27;93.99
61039;BME280;46919;45.816;3.104;2023-04-08T06:11:52;98202.44;;;2.47;93.64
61039;BME280;46919;45.816;3.104;2023-04-08T06:14:18;98207.63;;;2.57;94.11
61039;BME280;46919;45.816;3.104;2023-04-08T06:16:44;98206.13;;;2.70;94.45
61039;BME280;46919;45.816;3.104;2023-04-08T06:19:10;98210.31;;;2.73;93.84
61039;BME280;46919;45.816;3.104;2023-04-08T06:21:36;98218.31;;;2.81;94.10
61039;BME280;46919;45.816;3.104;2023-04-08T06:24:01;98221.47;;;2.93;94.33
61039;BME280;46919;45.816;3.104;2023-04-08T06:26:26;98216.97;;;3.02;94.24
61039;BME280;46919;45.816;3.104;2023-04-08T06:28:52;98206.78;;;3.05;93.95
61039;BME280;46919;45.816;3.104;2023-04-08T06:31:18;98210.28;;;3.14;93.96
61039;BME280;46919;45.816;3.104;2023-04-08T06:33:43;98218.41;;;3.29;93.27
61039;BME280;46919;45.816;3.104;2023-04-08T06:36:08;98218.38;;;3.45;93.46
61039;BME280;46919;45.816;3.104;2023-04-08T06:38:34;98217.00;;;3.58;92.29
61039;BME280;46919;45.816;3.104;2023-04-08T06:41:04;98219.66;;;3.66;93.04
61039;BME280;46919;45.816;3.104;2023-04-08T06:43:29;98217.63;;;3.76;92.44
61039;BME280;46919;45.816;3.104;2023-04-08T06:45:55;98215.25;;;3.81;91.95
61039;BME280;46919;45.816;3.104;2023-04-08T06:48:21;98218.06;;;3.88;92.17
61039;BME280;46919;45.816;3.104;2023-04-08T06:50:48;98214.34;;;3.97;92.12
61039;BME280;46919;45.816;3.104;2023-04-08T06:53:13;98218.31;;;4.10;92.42
61039;BME280;46919;45.816;3.104;2023-04-08T06:55:38;98223.72;;;4.25;91.97
61039;BME280;46919;45.816;3.104;2023-04-08T06:58:04;98228.84;;;4.34;91.74
61039;BME280;46919;45.816;3.104;2023-04-08T07:00:29;98235.53;;;4.39;91.79
61039;BME280;46919;45.816;3.104;2023-04-08T07:02:54;98234.13;;;4.51;91.38
61039;BME280;46919;45.816;3.104;2023-04-08T07:05:20;98233.75;;;4.54;91.33
61039;BME280;46919;45.816;3.104;2023-04-08T07:07:45;98234.59;;;4.54;91.81
61039;BME280;46919;45.816;3.104;2023-04-08T07:10:11;98238.94;;;4.56;92.14
61039;BME280;46919;45.816;3.104;2023-04-08T07:12:37;98241.91;;;4.61;92.36
61039;BME280;46919;45.816;3.104;2023-04-08T07:15:02;98241.50;;;4.72;91.09
61039;BME280;46919;45.816;3.104;2023-04-08T07:17:28;98244.09;;;4.80;91.72
61039;BME280;46919;45.816;3.104;2023-04-08T07:19:53;98240.53;;;4.88;91.48
61039;BME280;46919;45.816;3.104;2023-04-08T07:22:20;98242.38;;;4.87;91.34
61039;BME280;46919;45.816;3.104;2023-04-08T07:24:45;98241.00;;;4.92;92.28
61039;BME280;46919;45.816;3.104;2023-04-08T07:27:14;98239.56;;;5.04;91.51
61039;BME280;46919;45.816;3.104;2023-04-08T07:29:40;98237.28;;;5.16;91.04
61039;BME280;46919;45.816;3.104;2023-04-08T07:32:06;98245.34;;;5.31;90.55
61039;BME280;46919;45.816;3.104;2023-04-08T07:34:34;98245.94;;;5.41;90.59
61039;BME280;46919;45.816;3.104;2023-04-08T07:37:00;98246.50;;;5.51;90.35
61039;BME280;46919;45.816;3.104;2023-04-08T07:39:25;98246.94;;;5.55;90.66
61039;BME280;46919;45.816;3.104;2023-04-08T07:41:51;98259.97;;;5.58;90.73
61039;BME280;46919;45.816;3.104;2023-04-08T07:44:16;98254.16;;;5.69;90.09
61039;BME280;46919;45.816;3.104;2023-04-08T07:46:41;98255.47;;;5.73;90.28
61039;BME280;46919;45.816;3.104;2023-04-08T07:49:09;98252.22;;;5.78;90.42
61039;BME280;46919;45.816;3.104;2023-04-08T07:51:35;98253.91;;;5.79;89.90
61039;BME280;46919;45.816;3.104;2023-04-08T07:54:00;98257.88;;;5.83;89.88
61039;BME280;46919;45.816;3.104;2023-04-08T07:56:26;98259.81;;;5.89;90.02
61039;BME280;46919;45.816;3.104;2023-04-08T07:58:51;98258.38;;;6.02;89.27
61039;BME280;46919;45.816;3.104;2023-04-08T08:01:20;98265.00;;;6.06;88.79
61039;BME280;46919;45.816;3.104;2023-04-08T08:03:50;98266.50;;;6.08;89.06
61039;BME280;46919;45.816;3.104;2023-04-08T08:06:16;98270.94;;;6.16;88.69
61039;BME280;46919;45.816;3.104;2023-04-08T08:08:42;98263.13;;;6.36;88.13
61039;BME280;46919;45.816;3.104;2023-04-08T08:11:07;98270.50;;;6.49;87.49
61039;BME280;46919;45.816;3.104;2023-04-08T08:13:33;98272.91;;;6.44;87.69
61039;BME280;46919;45.816;3.104;2023-04-08T08:15:59;98277.69;;;6.48;87.70
61039;BME280;46919;45.816;3.104;2023-04-08T08:18:24;98277.19;;;6.75;87.36
61039;BME280;46919;45.816;3.104;2023-04-08T08:20:50;98282.44;;;6.83;86.55
61039;BME280;46919;45.816;3.104;2023-04-08T08:23:15;98280.06;;;6.95;86.71
61039;BME280;46919;45.816;3.104;2023-04-08T08:25:41;98284.84;;;6.99;86.52
61039;BME280;46919;45.816;3.104;2023-04-08T08:28:07;98290.94;;;7.08;86.11
61039;BME280;46919;45.816;3.104;2023-04-08T08:30:32;98286.72;;;6.99;86.45
61039;BME280;46919;45.816;3.104;2023-04-08T08:32:57;98288.06;;;7.10;86.15
61039;BME280;46919;45.816;3.104;2023-04-08T08:35:25;98290.56;;;7.11;85.74
61039;BME280;46919;45.816;3.104;2023-04-08T08:37:50;98292.53;;;7.24;85.81
61039;BME280;46919;45.816;3.104;2023-04-08T08:40:16;98291.41;;;7.40;84.81
61039;BME280;46919;45.816;3.104;2023-04-08T08:42:49;98297.22;;;7.43;84.76
61039;BME280;46919;45.816;3.104;2023-04-08T08:45:18;98293.09;;;7.69;83.86
61039;BME280;46919;45.816;3.104;2023-04-08T08:47:43;98299.31;;;7.70;83.46
61039;BME280;46919;45.816;3.104;2023-04-08T08:50:09;98302.81;;;7.70;83.69
61039;BME280;46919;45.816;3.104;2023-04-08T08:52:34;98305.63;;;7.84;82.93
61039;BME280;46919;45.816;3.104;2023-04-08T08:54:59;98299.03;;;7.93;82.30
61039;BME280;46919;45.816;3.104;2023-04-08T08:57:25;98289.50;;;7.90;82.38
61039;BME280;46919;45.816;3.104;2023-04-08T08:59:51;98292.28;;;8.10;81.75
61039;BME280;46919;45.816;3.104;2023-04-08T09:02:28;98291.34;;;8.25;80.92
61039;BME280;46919;45.816;3.104;2023-04-08T09:05:01;98291.75;;;8.22;80.64
61039;BME280;46919;45.816;3.104;2023-04-08T09:07:28;98284.59;;;8.42;80.18
61039;BME280;46919;45.816;3.104;2023-04-08T09:09:56;98294.16;;;8.51;79.57
61039;BME280;46919;45.816;3.104;2023-04-08T09:12:22;98294.16;;;8.51;79.63
61039;BME280;46919;45.816;3.104;2023-04-08T09:14:48;98303.13;;;8.65;79.62
61039;BME280;46919;45.816;3.104;2023-04-08T09:17:13;98299.66;;;8.85;78.46
61039;BME280;46919;45.816;3.104;2023-04-08T09:20:03;98298.84;;;8.91;78.40
61039;BME280;46919;45.816;3.104;2023-04-08T09:22:30;98295.34;;;9.04;77.55
61039;BME280;46919;45.816;3.104;2023-04-08T09:24:56;98300.78;;;9.11;77.61
61039;BME280;46919;45.816;3.104;2023-04-08T09:27:34;98297.66;;;9.34;75.88
61039;BME280;46919;45.816;3.104;2023-04-08T09:30:13;98302.44;;;9.45;76.29
61039;BME280;46919;45.816;3.104;2023-04-08T09:32:56;98313.47;;;9.50;75.21
61039;BME280;46919;45.816;3.104;2023-04-08T09:35:22;98296.84;;;9.53;75.46
61039;BME280;46919;45.816;3.104;2023-04-08T09:37:48;98301.22;;;9.68;75.17
61039;BME280;46919;45.816;3.104;2023-04-08T09:40:14;98301.00;;;9.76;74.17
61039;BME280;46919;45.816;3.104;2023-04-08T09:42:44;98292.47;;;9.72;73.75
61039;BME280;46919;45.816;3.104;2023-04-08T09:45:11;98298.47;;;9.81;73.37
61039;BME280;46919;45.816;3.104;2023-04-08T09:47:51;98300.75;;;9.84;71.81
61039;BME280;46919;45.816;3.104;2023-04-08T09:50:23;98301.97;;;10.15;72.31
61039;BME280;46919;45.816;3.104;2023-04-08T09:52:56;98287.78;;;10.33;70.82
61039;BME280;46919;45.816;3.104;2023-04-08T09:55:25;98298.53;;;10.46;70.92
61039;BME280;46919;45.816;3.104;2023-04-08T09:58:05;98294.44;;;10.82;70.09
61039;BME280;46919;45.816;3.104;2023-04-08T10:00:40;98284.44;;;10.83;69.14
61039;BME280;46919;45.816;3.104;2023-04-08T10:03:34;98284.09;;;10.73;68.23
61039;BME280;46919;45.816;3.104;2023-04-08T10:06:01;98284.53;;;11.01;69.19
61039;BME280;46919;45.816;3.104;2023-04-08T10:08:28;98284.88;;;11.12;68.17
61039;BME280;46919;45.816;3.104;2023-04-08T10:10:54;98289.72;;;11.03;68.01
61039;BME280;46919;45.816;3.104;2023-04-08T10:13:20;98290.44;;;10.92;67.89
61039;BME280;46919;45.816;3.104;2023-04-08T10:15:46;98283.06;;;11.05;67.68
61039;BME280;46919;45.816;3.104;2023-04-08T10:23:05;98281.59;;;11.60;64.63
61039;BME280;46919;45.816;3.104;2023-04-08T10:25:35;98280.72;;;11.66;64.19
61039;BME280;46919;45.816;3.104;2023-04-08T10:35:46;98265.50;;;12.27;61.21
61039;BME280;46919;45.816;3.104;2023-04-08T10:38:13;98270.25;;;12.32;62.62
61039;BME280;46919;45.816;3.104;2023-04-08T10:40:40;98269.34;;;12.57;61.43
61039;BME280;46919;45.816;3.104;2023-04-08T10:43:08;98267.97;;;12.66;61.41
61039;BME280;46919;45.816;3.104;2023-04-08T10:45:33;98261.13;;;12.45;61.57
61039;BME280;46919;45.816;3.104;2023-04-08T10:50:37;98259.84;;;12.66;59.83
61039;BME280;46919;45.816;3.104;2023-04-08T10:53:02;98253.41;;;12.30;60.87
61039;BME280;46919;45.816;3.104;2023-04-08T10:55:29;98256.78;;;12.25;60.84
61039;BME280;46919;45.816;3.104;2023-04-08T10:58:04;98250.09;;;12.28;59.98
61039;BME280;46919;45.816;3.104;2023-04-08T11:00:38;98247.81;;;12.43;59.83
61039;BME280;46919;45.816;3.104;2023-04-08T11:03:09;98240.56;;;12.86;58.69
61039;BME280;46919;45.816;3.104;2023-04-08T11:05:35;98238.59;;;13.05;58.49
61039;BME280;46919;45.816;3.104;2023-04-08T11:08:02;98243.31;;;12.98;58.21
61039;BME280;46919;45.816;3.104;2023-04-08T11:10:28;98244.72;;;12.89;57.45
61039;BME280;46919;45.816;3.104;2023-04-08T11:12:54;98249.03;;;12.47;58.52
61039;BME280;46919;45.816;3.104;2023-04-08T11:15:21;98242.81;;;12.59;58.84
61039;BME280;46919;45.816;3.104;2023-04-08T11:17:47;98241.31;;;12.63;58.60
61039;BME280;46919;45.816;3.104;2023-04-08T11:20:13;98240.75;;;12.73;57.84
61039;BME280;46919;45.816;3.104;2023-04-08T11:22:39;98236.69;;;12.94;57.35
61039;BME280;46919;45.816;3.104;2023-04-08T11:25:06;98237.25;;;12.84;57.64
61039;BME280;46919;45.816;3.104;2023-04-08T11:27:34;98228.09;;;12.55;57.55
61039;BME280;46919;45.816;3.104;2023-04-08T11:30:01;98231.38;;;12.57;57.62
61039;BME280;46919;45.816;3.104;2023-04-08T11:32:27;98219.66;;;12.75;57.65
61039;BME280;46919;45.816;3.104;2023-04-08T11:34:53;98223.00;;;13.54;55.78
61039;BME280;46919;45.816;3.104;2023-04-08T11:37:18;98220.19;;;13.61;55.28
61039;BME280;46919;45.816;3.104;2023-04-08T11:39:44;98229.41;;;13.06;55.70
61039;BME280;46919;45.816;3.104;2023-04-08T11:42:30;98221.66;;;12.67;56.27
61039;BME280;46919;45.816;3.104;2023-04-08T11:44:56;98219.97;;;13.63;56.14
61039;BME280;46919;45.816;3.104;2023-04-08T11:47:32;98213.75;;;14.55;54.87
61039;BME280;46919;45.816;3.104;2023-04-08T11:49:58;98212.38;;;14.98;53.49
61039;BME280;46919;45.816;3.104;2023-04-08T11:52:40;98198.31;;;15.35;51.49
61039;BME280;46919;45.816;3.104;2023-04-08T11:55:06;98208.09;;;15.36;50.96
61039;BME280;46919;45.816;3.104;2023-04-08T11:57:31;98204.75;;;15.68;51.14
61039;BME280;46919;45.816;3.104;2023-04-08T11:59:57;98198.84;;;16.10;50.51
61039;BME280;46919;45.816;3.104;2023-04-08T12:02:22;98191.38;;;16.72;49.74
61039;BME280;46919;45.816;3.104;2023-04-08T12:04:48;98196.41;;;17.45;50.03
61039;BME280;46919;45.816;3.104;2023-04-08T12:07:13;98190.22;;;18.03;50.00
61039;BME280;46919;45.816;3.104;2023-04-08T12:09:39;98196.72;;;17.16;49.87
61039;BME280;46919;45.816;3.104;2023-04-08T12:12:04;98195.53;;;16.80;48.89
61039;BME280;46919;45.816;3.104;2023-04-08T12:14:30;98198.84;;;16.10;48.87
61039;BME280;46919;45.816;3.104;2023-04-08T12:16:55;98192.66;;;15.59;49.14
61039;BME280;46919;45.816;3.104;2023-04-08T12:19:21;98192.06;;;16.35;48.84
61039;BME280;46919;45.816;3.104;2023-04-08T12:21:46;98183.34;;;16.38;48.46
61039;BME280;46919;45.816;3.104;2023-04-08T12:24:11;98189.91;;;16.37;48.90
61039;BME280;46919;45.816;3.104;2023-04-08T12:26:37;98189.34;;;16.13;48.12
61039;BME280;46919;45.816;3.104;2023-04-08T12:29:02;98185.44;;;15.87;48.13
61039;BME280;46919;45.816;3.104;2023-04-08T12:31:28;98194.22;;;15.72;48.17
61039;BME280;46919;45.816;3.104;2023-04-08T12:33:53;98181.22;;;15.40;48.60
61039;BME280;46919;45.816;3.104;2023-04-08T12:36:18;98180.22;;;15.12;48.84
61039;BME280;46919;45.816;3.104;2023-04-08T12:38:44;98171.44;;;16.22;48.04
61039;BME280;46919;45.816;3.104;2023-04-08T12:41:10;98162.44;;;17.36;46.56
61039;BME280;46919;45.816;3.104;2023-04-08T12:43:35;98166.50;;;17.71;46.17
61039;BME280;46919;45.816;3.104;2023-04-08T12:46:01;98172.81;;;16.47;46.30
61039;BME280;46919;45.816;3.104;2023-04-08T12:48:27;98183.28;;;15.89;46.69
61039;BME280;46919;45.816;3.104;2023-04-08T12:50:52;98183.59;;;15.53;47.11
61039;BME280;46919;45.816;3.104;2023-04-08T12:53:18;98179.81;;;16.65;47.22
61039;BME280;46919;45.816;3.104;2023-04-08T12:55:43;98174.28;;;17.89;45.99
61039;BME280;46919;45.816;3.104;2023-04-08T12:58:09;98165.59;;;18.92;45.44
61039;BME280;46919;45.816;3.104;2023-04-08T13:00:34;98164.50;;;19.18;43.25
61039;BME280;46919;45.816;3.104;2023-04-08T13:03:02;98171.41;;;18.22;43.13
61039;BME280;46919;45.816;3.104;2023-04-08T13:05:28;98169.06;;;18.61;43.62
61039;BME280;46919;45.816;3.104;2023-04-08T13:07:53;98175.75;;;18.07;43.53
61039;BME280;46919;45.816;3.104;2023-04-08T13:10:18;98165.75;;;18.39;44.39
61039;BME280;46919;45.816;3.104;2023-04-08T13:12:44;98162.56;;;19.19;44.43
61039;BME280;46919;45.816;3.104;2023-04-08T13:15:10;98157.38;;;19.43;43.18
61039;BME280;46919;45.816;3.104;2023-04-08T13:17:35;98154.28;;;19.81;42.24
61039;BME280;46919;45.816;3.104;2023-04-08T13:20:00;98139.22;;;20.43;41.35
61039;BME280;46919;45.816;3.104;2023-04-08T13:22:26;98146.72;;;20.83;40.03
61039;BME280;46919;45.816;3.104;2023-04-08T13:24:52;98141.38;;;20.52;39.35
61039;BME280;46919;45.816;3.104;2023-04-08T13:27:17;98153.00;;;19.32;40.18